createdAt,value
2023-03-05T00:00:48.540Z,29.52
2023-03-05T00:01:45.155Z,28.42
2023-03-05T00:02:42.237Z,29.27
2023-03-05T00:03:39.128Z,29.85
2023-03-05T00:04:36.105Z,28.40
2023-03-05T00:05:34.877Z,27.65
2023-03-05T00:06:32.460Z,27.08
2023-03-05T00:07:29.094Z,26.40
2023-03-05T00:08:25.909Z,26.83
2023-03-05T00:09:22.685Z,27.25
2023-03-05T00:10:19.421Z,26.42
2023-03-05T00:11:16.732Z,27.80
2023-03-05T00:12:13.305Z,28.35
2023-03-05T00:13:12.553Z,27.42
2023-03-05T00:14:10.386Z,27.00
2023-03-05T00:15:07.901Z,26.75
2023-03-05T00:16:06.638Z,27.15
2023-03-05T00:17:03.386Z,27.85
2023-03-05T00:17:59.967Z,28.80
2023-03-05T00:18:58.649Z,29.10
2023-03-05T00:19:57.069Z,26.83
2023-03-05T00:20:53.801Z,28.90
2023-03-05T00:21:50.419Z,27.17
2023-03-05T00:22:47.005Z,28.63
2023-03-05T00:23:43.708Z,28.77
2023-03-05T00:24:40.274Z,28.02
2023-03-05T00:25:36.970Z,27.90
2023-03-05T00:26:36.939Z,28.88
2023-03-05T00:27:33.496Z,30.30
2023-03-05T00:28:30.154Z,38.42
2023-03-05T00:29:29.598Z,37.78
2023-03-05T00:30:28.029Z,33.90
2023-03-05T00:31:30.519Z,36.13
2023-03-05T00:32:27.221Z,39.13
2023-03-05T00:33:23.886Z,39.83
2023-03-05T00:34:21.153Z,39.05
2023-03-05T00:35:17.891Z,34.83
2023-03-05T00:36:14.543Z,37.17
2023-03-05T00:37:12.690Z,37.50
2023-03-05T00:38:09.528Z,40.10
2023-03-05T00:39:06.121Z,40.22
2023-03-05T00:40:04.071Z,39.60
2023-03-05T00:41:00.666Z,39.85
2023-03-05T00:41:57.376Z,40.47
2023-03-05T00:42:53.916Z,39.08
2023-03-05T00:43:50.629Z,36.42
2023-03-05T00:44:49.532Z,40.80
2023-03-05T00:45:46.104Z,40.28
2023-03-05T00:46:42.759Z,40.25
2023-03-05T00:47:39.754Z,40.00
2023-03-05T00:48:36.567Z,37.40
2023-03-05T00:49:33.160Z,36.40
2023-03-05T00:50:32.098Z,37.67
2023-03-05T00:51:29.053Z,40.42
2023-03-05T00:52:25.876Z,39.47
2023-03-05T00:53:23.328Z,40.22
2023-03-05T00:54:21.073Z,42.42
2023-03-05T00:55:17.797Z,40.88
2023-03-05T00:56:14.538Z,43.38
2023-03-05T00:57:11.123Z,41.85
2023-03-05T00:58:07.718Z,43.78
2023-03-05T00:59:04.309Z,43.22
2023-03-05T01:00:00.863Z,45.03
2023-03-05T01:00:59.423Z,41.45
2023-03-05T01:01:56.014Z,40.83
2023-03-05T01:02:52.653Z,36.58
2023-03-05T01:03:49.206Z,36.97
2023-03-05T01:04:47.356Z,38.35
2023-03-05T01:05:44.384Z,36.45
2023-03-05T01:06:44.835Z,38.92
2023-03-05T01:07:41.750Z,40.45
2023-03-05T01:08:38.743Z,41.63
2023-03-05T01:09:35.352Z,39.97
2023-03-05T01:10:32.295Z,39.53
2023-03-05T01:11:28.927Z,40.38
2023-03-05T01:12:25.594Z,40.17
2023-03-05T01:13:22.327Z,39.22
2023-03-05T01:14:19.944Z,38.83
2023-03-05T01:15:16.563Z,37.90
2023-03-05T01:16:13.495Z,38.55
2023-03-05T01:17:10.154Z,38.40
2023-03-05T01:18:06.837Z,38.45
2023-03-05T01:19:03.692Z,38.17
2023-03-05T01:20:00.390Z,38.10
2023-03-05T01:20:57.066Z,38.30
2023-03-05T01:21:55.168Z,37.75
2023-03-05T01:22:51.796Z,37.10
2023-03-05T01:23:48.395Z,36.60
2023-03-05T01:24:45.103Z,36.78
2023-03-05T01:25:41.807Z,35.47
2023-03-05T01:26:38.444Z,34.28
2023-03-05T01:27:35.184Z,34.58
2023-03-05T01:28:32.707Z,34.72
2023-03-05T01:29:29.339Z,34.85
2023-03-05T01:30:26.024Z,35.10
2023-03-05T01:31:22.922Z,35.33
2023-03-05T01:32:19.624Z,35.42
2023-03-05T01:33:16.236Z,33.15
2023-03-05T01:34:13.821Z,31.90
2023-03-05T01:35:15.284Z,32.70
2023-03-05T01:36:16.756Z,32.85
2023-03-05T01:37:13.428Z,33.30
2023-03-05T01:38:10.050Z,34.28
2023-03-05T01:39:06.602Z,33.25
2023-03-05T01:40:03.565Z,33.60
2023-03-05T01:41:00.111Z,34.03
2023-03-05T01:41:56.699Z,33.75
2023-03-05T01:43:11.867Z,34.85
2023-03-05T01:44:36.279Z,34.00
2023-03-05T01:45:33.012Z,33.03
2023-03-05T01:46:37.114Z,32.17
2023-03-05T01:47:33.756Z,33.90
2023-03-05T01:48:30.610Z,32.13
2023-03-05T01:49:28.796Z,33.45
2023-03-05T01:50:27.530Z,32.78
2023-03-05T01:51:27.058Z,32.70
2023-03-05T01:52:26.590Z,33.25
2023-03-05T01:53:23.180Z,33.88
2023-03-05T01:54:21.936Z,34.47
2023-03-05T01:55:22.558Z,33.83
2023-03-05T01:56:19.322Z,32.58
2023-03-05T01:57:23.085Z,32.80
2023-03-05T01:58:19.646Z,33.78
2023-03-05T01:59:17.760Z,32.70
2023-03-05T02:00:19.117Z,33.35
2023-03-05T02:01:17.106Z,31.20
2023-03-05T02:02:14.232Z,31.90
2023-03-05T02:03:13.239Z,33.53
2023-03-05T02:04:14.642Z,32.55
2023-03-05T02:05:16.154Z,32.03
2023-03-05T02:06:13.602Z,34.83
2023-03-05T02:07:11.621Z,30.70
2023-03-05T02:08:10.975Z,31.50
2023-03-05T02:09:07.675Z,30.70
2023-03-05T02:10:32.459Z,31.90
2023-03-05T02:11:29.419Z,29.35
2023-03-05T02:12:26.083Z,30.55
2023-03-05T02:13:25.362Z,30.60
2023-03-05T02:14:25.980Z,32.75
2023-03-05T02:15:23.066Z,29.50
2023-03-05T02:16:19.705Z,31.20
2023-03-05T02:17:16.633Z,31.00
2023-03-05T02:18:13.996Z,31.92
2023-03-05T02:19:12.962Z,31.75
2023-03-05T02:20:16.051Z,31.50
2023-03-05T02:21:12.694Z,30.35
2023-03-05T02:22:14.887Z,30.42
2023-03-05T02:23:11.579Z,28.98
2023-03-05T02:24:14.268Z,29.10
2023-03-05T02:25:15.832Z,29.65
2023-03-05T02:26:12.441Z,30.33
2023-03-05T02:27:09.838Z,30.42
2023-03-05T02:28:13.288Z,29.85
2023-03-05T02:29:12.974Z,31.50
2023-03-05T02:30:10.343Z,32.08
2023-03-05T02:31:13.578Z,31.75
2023-03-05T02:32:11.074Z,30.38
2023-03-05T02:33:08.187Z,31.70
2023-03-05T02:34:05.201Z,30.65
2023-03-05T02:35:01.864Z,30.70
2023-03-05T02:35:58.517Z,30.98
2023-03-05T02:36:55.641Z,32.83
2023-03-05T02:37:52.389Z,31.10
2023-03-05T02:38:49.354Z,31.58
2023-03-05T02:39:45.999Z,31.38
2023-03-05T02:40:43.384Z,31.13
2023-03-05T02:41:40.070Z,30.95
2023-03-05T02:42:36.963Z,32.88
2023-03-05T02:43:33.609Z,30.95
2023-03-05T02:44:30.327Z,31.13
2023-03-05T02:45:27.245Z,31.70
2023-03-05T02:46:23.949Z,31.55
2023-03-05T02:47:20.704Z,31.48
2023-03-05T02:48:17.340Z,32.67
2023-03-05T02:49:14.083Z,31.10
2023-03-05T02:50:12.251Z,31.88
2023-03-05T02:51:09.486Z,30.13
2023-03-05T02:52:06.372Z,32.22
2023-03-05T02:53:03.122Z,29.10
2023-03-05T02:53:59.669Z,32.08
2023-03-05T02:54:56.232Z,31.70
2023-03-05T02:55:52.974Z,31.92
2023-03-05T02:56:50.440Z,30.48
2023-03-05T02:57:47.040Z,30.42
2023-03-05T02:58:43.706Z,31.15
2023-03-05T02:59:40.257Z,29.52
2023-03-05T03:00:36.858Z,33.28
2023-03-05T03:01:33.524Z,31.60
2023-03-05T03:02:30.141Z,33.00
2023-03-05T03:03:26.802Z,32.58
2023-03-05T03:04:23.415Z,34.42
2023-03-05T03:05:20.073Z,34.85
2023-03-05T03:06:16.682Z,34.50
2023-03-05T03:07:14.096Z,34.38
2023-03-05T03:08:11.446Z,34.72
2023-03-05T03:09:08.104Z,35.20
2023-03-05T03:10:05.918Z,34.05
2023-03-05T03:11:07.987Z,33.95
2023-03-05T03:12:05.918Z,32.35
2023-03-05T03:13:02.764Z,31.30
2023-03-05T03:14:00.293Z,31.20
2023-03-05T03:14:56.844Z,30.90
2023-03-05T03:16:12.778Z,30.02
2023-03-05T03:17:11.839Z,31.75
2023-03-05T03:18:08.485Z,33.22
2023-03-05T03:19:05.632Z,31.58
2023-03-05T03:20:07.659Z,32.10
2023-03-05T03:21:05.199Z,32.28
2023-03-05T03:22:01.840Z,33.35
2023-03-05T03:22:58.438Z,35.70
2023-03-05T03:23:55.079Z,35.55
2023-03-05T03:24:51.706Z,36.20
2023-03-05T03:25:48.391Z,37.60
2023-03-05T03:26:44.998Z,37.17
2023-03-05T03:27:41.753Z,37.63
2023-03-05T03:28:38.425Z,37.53
2023-03-05T03:29:35.372Z,38.17
2023-03-05T03:30:32.071Z,35.65
2023-03-05T03:31:28.699Z,35.42
2023-03-05T03:32:25.417Z,38.30
2023-03-05T03:33:22.453Z,36.95
2023-03-05T03:34:20.090Z,37.42
2023-03-05T03:35:16.685Z,39.00
2023-03-05T03:36:13.624Z,36.85
2023-03-05T03:37:10.728Z,37.50
2023-03-05T03:38:07.358Z,35.15
2023-03-05T03:39:05.994Z,36.72
2023-03-05T03:40:05.650Z,37.13
2023-03-05T03:41:02.279Z,37.85
2023-03-05T03:41:58.943Z,40.00
2023-03-05T03:42:55.615Z,39.50
2023-03-05T03:43:52.171Z,37.22
2023-03-05T03:44:49.583Z,37.50
2023-03-05T03:45:46.260Z,38.13
2023-03-05T03:46:44.657Z,38.95
2023-03-05T03:47:41.408Z,39.38
2023-03-05T03:48:38.214Z,39.20
2023-03-05T03:49:34.897Z,39.10
2023-03-05T03:50:31.473Z,38.97
2023-03-05T03:51:28.092Z,38.55
2023-03-05T03:52:24.769Z,40.70
2023-03-05T03:53:21.379Z,40.42
2023-03-05T03:54:18.917Z,40.92
2023-03-05T03:55:15.564Z,39.50
2023-03-05T03:56:12.194Z,42.72
2023-03-05T03:57:09.475Z,40.33
2023-03-05T03:58:06.345Z,39.50
2023-03-05T03:59:03.424Z,41.47
2023-03-05T04:00:00.863Z,42.53
2023-03-05T04:00:57.586Z,40.63
2023-03-05T04:01:54.151Z,40.22
2023-03-05T04:02:50.828Z,39.45
2023-03-05T04:03:47.644Z,41.03
2023-03-05T04:04:44.322Z,40.53
2023-03-05T04:05:41.056Z,40.72
2023-03-05T04:06:37.749Z,41.33
2023-03-05T04:07:34.350Z,39.90
2023-03-05T04:08:30.936Z,39.15
2023-03-05T04:09:27.664Z,38.17
2023-03-05T04:10:25.828Z,40.42
2023-03-05T04:11:22.455Z,39.88
2023-03-05T04:12:19.156Z,38.80
2023-03-05T04:13:15.722Z,39.65
2023-03-05T04:14:12.412Z,37.40
2023-03-05T04:15:10.730Z,40.25
2023-03-05T04:16:07.683Z,40.00
2023-03-05T04:17:04.377Z,38.90
2023-03-05T04:18:01.023Z,39.15
2023-03-05T04:18:57.625Z,38.08
2023-03-05T04:19:54.305Z,39.55
2023-03-05T04:20:50.980Z,37.45
2023-03-05T04:21:47.668Z,37.83
2023-03-05T04:22:44.306Z,38.17
2023-03-05T04:23:41.189Z,37.42
2023-03-05T04:24:38.753Z,39.60
2023-03-05T04:25:35.296Z,39.42
2023-03-05T04:26:31.847Z,35.85
2023-03-05T04:27:28.420Z,38.28
2023-03-05T04:28:25.088Z,37.75
2023-03-05T04:29:22.364Z,38.45
2023-03-05T04:30:19.122Z,34.17
2023-03-05T04:31:15.869Z,37.38
2023-03-05T04:32:12.535Z,37.25
2023-03-05T04:33:09.108Z,37.97
2023-03-05T04:34:05.735Z,38.35
2023-03-05T04:35:02.433Z,37.70
2023-03-05T04:35:59.355Z,37.40
2023-03-05T04:36:55.980Z,36.65
2023-03-05T04:37:52.866Z,37.67
2023-03-05T04:38:49.433Z,37.35
2023-03-05T04:39:46.010Z,36.47
2023-03-05T04:40:42.696Z,36.45
2023-03-05T04:41:39.265Z,39.38
2023-03-05T04:42:35.902Z,37.88
2023-03-05T04:43:32.518Z,37.33
2023-03-05T04:44:29.158Z,38.45
2023-03-05T04:45:25.773Z,35.85
2023-03-05T04:46:22.448Z,37.40
2023-03-05T04:47:19.659Z,36.58
2023-03-05T04:48:17.042Z,39.03
2023-03-05T04:49:13.629Z,38.80
2023-03-05T04:50:11.352Z,38.72
2023-03-05T04:51:08.060Z,39.97
2023-03-05T04:52:04.777Z,40.53
2023-03-05T04:53:01.655Z,38.72
2023-03-05T04:53:58.512Z,38.53
2023-03-05T04:54:55.145Z,38.67
2023-03-05T04:55:55.649Z,39.22
2023-03-05T04:56:52.406Z,38.72
2023-03-05T04:57:49.610Z,38.28
2023-03-05T04:58:46.226Z,37.05
2023-03-05T04:59:42.840Z,38.28
2023-03-05T05:00:39.390Z,37.05
2023-03-05T05:01:36.069Z,38.58
2023-03-05T05:02:33.521Z,39.38
2023-03-05T05:03:30.268Z,38.08
2023-03-05T05:04:26.905Z,38.45
2023-03-05T05:05:26.712Z,37.60
2023-03-05T05:06:23.326Z,38.22
2023-03-05T05:07:20.075Z,39.55
2023-03-05T05:08:16.636Z,39.10
2023-03-05T05:09:13.348Z,40.10
2023-03-05T05:10:12.002Z,40.03
2023-03-05T05:11:08.774Z,37.53
2023-03-05T05:12:05.638Z,37.70
2023-03-05T05:13:02.264Z,39.67
2023-03-05T05:13:58.931Z,38.67
2023-03-05T05:14:55.690Z,37.63
2023-03-05T05:15:52.589Z,38.75
2023-03-05T05:16:49.272Z,37.85
2023-03-05T05:17:46.378Z,38.65
2023-03-05T05:18:42.953Z,39.45
2023-03-05T05:19:39.712Z,40.72
2023-03-05T05:20:36.316Z,41.40
2023-03-05T05:21:32.888Z,41.22
2023-03-05T05:22:29.543Z,37.78
2023-03-05T05:23:26.358Z,38.35
2023-03-05T05:24:22.988Z,37.58
2023-03-05T05:25:19.568Z,39.85
2023-03-05T05:26:16.218Z,39.78
2023-03-05T05:27:12.768Z,37.78
2023-03-05T05:28:11.170Z,38.53
2023-03-05T05:29:07.815Z,36.78
2023-03-05T05:30:05.157Z,39.55
2023-03-05T05:31:07.072Z,40.30
2023-03-05T05:32:03.691Z,38.78
2023-03-05T05:33:00.408Z,36.92
2023-03-05T05:33:57.021Z,39.17
2023-03-05T05:34:58.169Z,38.00
2023-03-05T05:35:54.808Z,39.15
2023-03-05T05:36:52.224Z,38.92
2023-03-05T05:37:48.833Z,38.63
2023-03-05T05:38:46.038Z,39.70
2023-03-05T05:39:42.590Z,40.28
2023-03-05T05:40:40.042Z,38.75
2023-03-05T05:41:36.597Z,37.17
2023-03-05T05:42:33.212Z,39.38
2023-03-05T05:43:29.766Z,41.53
2023-03-05T05:44:26.475Z,39.30
2023-03-05T05:45:23.150Z,40.88
2023-03-05T05:46:20.990Z,38.20
2023-03-05T05:47:18.347Z,37.63
2023-03-05T05:48:14.986Z,36.42
2023-03-05T05:49:11.726Z,37.17
2023-03-05T05:50:09.032Z,36.40
2023-03-05T05:51:20.368Z,34.20
2023-03-05T05:52:17.102Z,32.25
2023-03-05T05:53:13.666Z,35.45
2023-03-05T05:54:13.478Z,33.15
2023-03-05T05:55:10.627Z,32.67
2023-03-05T05:56:09.899Z,34.45
2023-03-05T05:57:06.635Z,35.22
2023-03-05T05:58:03.243Z,34.63
2023-03-05T05:58:59.945Z,34.33
2023-03-05T05:59:56.779Z,34.42
2023-03-05T06:00:53.408Z,33.50
2023-03-05T06:01:50.134Z,33.40
2023-03-05T06:02:46.932Z,31.92
2023-03-05T06:03:43.704Z,33.35
2023-03-05T06:04:40.435Z,33.30
2023-03-05T06:05:37.003Z,33.85
2023-03-05T06:06:35.039Z,33.95
2023-03-05T06:07:31.833Z,34.03
2023-03-05T06:08:28.370Z,32.78
2023-03-05T06:09:24.999Z,34.47
2023-03-05T06:10:21.608Z,32.45
2023-03-05T06:11:19.592Z,32.30
2023-03-05T06:12:16.521Z,32.33
2023-03-05T06:13:13.139Z,31.17
2023-03-05T06:14:12.354Z,32.40
2023-03-05T06:15:09.891Z,30.73
2023-03-05T06:16:10.892Z,29.98
2023-03-05T06:17:07.582Z,30.13
2023-03-05T06:18:04.198Z,30.63
2023-03-05T06:19:04.442Z,31.67
2023-03-05T06:20:01.336Z,30.80
2023-03-05T06:21:00.061Z,30.02
2023-03-05T06:21:56.705Z,31.52
2023-03-05T06:22:53.290Z,30.15
2023-03-05T06:23:51.281Z,33.05
2023-03-05T06:24:47.878Z,30.15
2023-03-05T06:25:44.525Z,32.88
2023-03-05T06:26:41.527Z,32.70
2023-03-05T06:27:38.839Z,33.00
2023-03-05T06:28:35.623Z,33.55
2023-03-05T06:29:32.422Z,32.60
2023-03-05T06:30:29.062Z,33.00
2023-03-05T06:31:27.631Z,35.60
2023-03-05T06:32:24.283Z,33.63
2023-03-05T06:33:20.967Z,35.13
2023-03-05T06:34:17.624Z,35.70
2023-03-05T06:35:14.254Z,35.38
2023-03-05T06:36:16.169Z,34.88
2023-03-05T06:37:12.806Z,36.08
2023-03-05T06:38:12.072Z,34.63
2023-03-05T06:39:08.770Z,33.88
2023-03-05T06:40:05.830Z,33.72
2023-03-05T06:41:09.327Z,34.33
2023-03-05T06:42:06.087Z,33.85
2023-03-05T06:43:02.666Z,35.28
2023-03-05T06:44:02.339Z,36.13
2023-03-05T06:44:59.022Z,35.13
2023-03-05T06:46:07.070Z,36.67
2023-03-05T06:47:05.662Z,35.65
2023-03-05T06:48:02.284Z,34.55
2023-03-05T06:49:01.186Z,34.55
2023-03-05T06:49:57.814Z,35.00
2023-03-05T06:50:54.458Z,35.20
2023-03-05T06:51:51.091Z,35.15
2023-03-05T06:52:50.000Z,35.33
2023-03-05T06:53:49.374Z,33.28
2023-03-05T06:54:46.215Z,34.13
2023-03-05T06:55:42.785Z,36.10
2023-03-05T06:56:41.106Z,35.20
2023-03-05T06:57:37.679Z,34.90
2023-03-05T06:58:34.268Z,34.63
2023-03-05T06:59:30.808Z,33.65
2023-03-05T07:00:29.791Z,34.58
2023-03-05T07:01:26.458Z,33.20
2023-03-05T07:02:23.157Z,32.92
2023-03-05T07:03:19.790Z,32.13
2023-03-05T07:04:17.163Z,33.13
2023-03-05T07:05:13.897Z,34.92
2023-03-05T07:06:13.500Z,33.75
2023-03-05T07:07:10.112Z,33.42
2023-03-05T07:08:07.069Z,31.80
2023-03-05T07:09:05.114Z,33.65
2023-03-05T07:10:01.906Z,34.20
2023-03-05T07:10:59.151Z,35.50
2023-03-05T07:11:55.799Z,34.22
2023-03-05T07:12:52.399Z,35.80
2023-03-05T07:13:49.689Z,34.33
2023-03-05T07:14:46.303Z,34.13
2023-03-05T07:15:44.016Z,33.22
2023-03-05T07:16:40.645Z,35.42
2023-03-05T07:17:37.307Z,32.95
2023-03-05T07:18:34.179Z,33.75
2023-03-05T07:19:30.769Z,30.80
2023-03-05T07:20:27.355Z,33.90
2023-03-05T07:21:27.004Z,35.65
2023-03-05T07:22:23.579Z,31.27
2023-03-05T07:23:20.156Z,29.92
2023-03-05T07:24:16.883Z,30.48
2023-03-05T07:25:13.961Z,26.92
2023-03-05T07:26:10.809Z,27.95
2023-03-05T07:27:07.482Z,29.05
2023-03-05T07:28:06.473Z,27.20
2023-03-05T07:29:03.818Z,28.45
2023-03-05T07:30:00.519Z,27.92
2023-03-05T07:30:59.321Z,27.55
2023-03-05T07:31:56.174Z,29.02
2023-03-05T07:32:52.749Z,26.10
2023-03-05T07:33:50.366Z,26.23
2023-03-05T07:34:46.962Z,26.05
2023-03-05T07:35:43.596Z,27.42
2023-03-05T07:36:40.607Z,26.15
2023-03-05T07:37:37.246Z,29.00
2023-03-05T07:38:33.858Z,28.67
2023-03-05T07:39:30.402Z,30.33
2023-03-05T07:40:26.999Z,30.48
2023-03-05T07:41:23.846Z,31.67
2023-03-05T07:42:20.594Z,32.08
2023-03-05T07:43:17.461Z,31.70
2023-03-05T07:44:14.138Z,30.90
2023-03-05T07:45:11.068Z,30.35
2023-03-05T07:46:09.949Z,29.77
2023-03-05T07:47:06.625Z,24.52
2023-03-05T07:48:03.338Z,25.10
2023-03-05T07:49:00.571Z,25.08
2023-03-05T07:49:57.190Z,23.52
2023-03-05T07:51:05.453Z,23.65
2023-03-05T07:52:02.050Z,24.00
2023-03-05T07:52:58.892Z,23.33
2023-03-05T07:53:57.610Z,24.50
2023-03-05T07:54:54.194Z,24.27
2023-03-05T07:55:50.801Z,25.52
2023-03-05T07:56:47.410Z,24.98
2023-03-05T07:57:44.078Z,24.77
2023-03-05T07:58:40.736Z,25.05
2023-03-05T07:59:38.296Z,23.80
2023-03-05T08:00:34.980Z,24.80
2023-03-05T08:01:33.021Z,23.23
2023-03-05T08:02:29.793Z,23.58
2023-03-05T08:03:26.529Z,24.38
2023-03-05T08:04:23.279Z,24.35
2023-03-05T08:05:19.869Z,23.73
2023-03-05T08:06:16.846Z,22.98
2023-03-05T08:07:16.813Z,20.80
2023-03-05T08:08:13.451Z,21.90
2023-03-05T08:09:10.484Z,22.25
2023-03-05T08:10:07.965Z,22.38
2023-03-05T08:11:06.818Z,22.83
2023-03-05T08:12:03.573Z,24.40
2023-03-05T08:13:00.251Z,24.83
2023-03-05T08:13:59.402Z,25.20
2023-03-05T08:14:55.979Z,24.75
2023-03-05T08:15:52.562Z,24.15
2023-03-05T08:16:52.602Z,25.15
2023-03-05T08:17:52.115Z,24.98
2023-03-05T08:18:48.836Z,23.88
2023-03-05T08:19:45.390Z,24.45
2023-03-05T08:20:41.933Z,24.65
2023-03-05T08:21:38.663Z,24.23
2023-03-05T08:22:35.527Z,24.27
2023-03-05T08:23:34.494Z,22.70
2023-03-05T08:24:31.142Z,23.58
2023-03-05T08:25:28.372Z,25.08
2023-03-05T08:26:27.805Z,23.10
2023-03-05T08:27:24.608Z,22.27
2023-03-05T08:28:21.297Z,23.13
2023-03-05T08:29:17.903Z,22.98
2023-03-05T08:30:18.558Z,22.13
2023-03-05T08:31:17.184Z,22.15
2023-03-05T08:32:13.874Z,23.13
2023-03-05T08:33:12.105Z,22.67
2023-03-05T08:34:08.679Z,21.65
2023-03-05T08:35:06.846Z,24.80
2023-03-05T08:36:04.046Z,24.38
2023-03-05T08:37:00.638Z,24.58
2023-03-05T08:37:57.404Z,25.77
2023-03-05T08:38:54.063Z,24.65
2023-03-05T08:39:50.827Z,24.27
2023-03-05T08:40:48.181Z,23.75
2023-03-05T08:41:44.895Z,23.10
2023-03-05T08:42:41.415Z,23.58
2023-03-05T08:43:38.020Z,22.75
2023-03-05T08:44:34.604Z,23.27
2023-03-05T08:45:31.352Z,24.35
2023-03-05T08:46:28.071Z,22.70
2023-03-05T08:47:26.704Z,23.90
2023-03-05T08:48:23.527Z,23.80
2023-03-05T08:49:20.142Z,22.98
2023-03-05T08:50:17.958Z,22.52
2023-03-05T08:51:18.402Z,23.25
2023-03-05T08:52:15.126Z,23.88
2023-03-05T08:53:11.912Z,22.60
2023-03-05T08:54:09.843Z,22.92
2023-03-05T08:55:06.638Z,22.83
2023-03-05T08:56:03.813Z,23.40
2023-03-05T08:57:00.664Z,22.42
2023-03-05T08:57:57.381Z,22.08
2023-03-05T08:58:54.556Z,21.95
2023-03-05T08:59:51.138Z,21.77
2023-03-05T09:00:47.737Z,23.42
2023-03-05T09:01:44.391Z,22.25
2023-03-05T09:02:41.136Z,24.13
2023-03-05T09:03:38.129Z,23.20
2023-03-05T09:04:34.673Z,25.13
2023-03-05T09:05:31.261Z,23.67
2023-03-05T09:06:28.218Z,23.48
2023-03-05T09:07:24.861Z,24.75
2023-03-05T09:08:21.745Z,24.60
2023-03-05T09:09:21.355Z,24.40
2023-03-05T09:10:18.548Z,23.33
2023-03-05T09:11:15.238Z,23.60
2023-03-05T09:12:13.402Z,23.38
2023-03-05T09:13:10.984Z,21.00
2023-03-05T09:14:07.763Z,22.08
2023-03-05T09:15:08.202Z,20.65
2023-03-05T09:16:08.225Z,22.88
2023-03-05T09:17:04.906Z,22.33
2023-03-05T09:18:01.715Z,23.17
2023-03-05T09:18:59.834Z,22.48
2023-03-05T09:19:56.441Z,23.85
2023-03-05T09:20:53.845Z,25.33
2023-03-05T09:21:50.685Z,24.00
2023-03-05T09:22:47.296Z,22.60
2023-03-05T09:23:45.042Z,23.70
2023-03-05T09:24:43.472Z,24.02
2023-03-05T09:25:41.295Z,23.10
2023-03-05T09:26:38.022Z,24.10
2023-03-05T09:27:38.868Z,24.02
2023-03-05T09:28:35.815Z,22.98
2023-03-05T09:29:32.533Z,24.48
2023-03-05T09:30:29.135Z,24.70
2023-03-05T09:31:25.771Z,22.85
2023-03-05T09:32:22.381Z,23.85
2023-03-05T09:33:19.082Z,23.13
2023-03-05T09:34:15.680Z,23.95
2023-03-05T09:35:12.444Z,23.33
2023-03-05T09:36:21.602Z,23.58
2023-03-05T09:37:18.186Z,22.95
2023-03-05T09:38:14.993Z,23.35
2023-03-05T09:39:11.656Z,22.38
2023-03-05T09:40:12.124Z,23.00
2023-03-05T09:41:43.009Z,23.52
2023-03-05T09:42:52.112Z,21.98
2023-03-05T09:44:26.295Z,23.20
2023-03-05T09:45:26.983Z,22.23
2023-03-05T09:46:36.026Z,22.77
2023-03-05T09:48:00.122Z,21.98
2023-03-05T09:49:22.513Z,22.85
2023-03-05T09:50:40.520Z,22.27
2023-03-05T09:51:41.594Z,22.15
2023-03-05T09:52:50.363Z,23.20
2023-03-05T09:53:52.286Z,22.92
2023-03-05T09:54:54.422Z,24.08
2023-03-05T09:55:56.855Z,22.05
2023-03-05T09:58:02.968Z,21.60
2023-03-05T09:59:17.776Z,22.90
2023-03-05T10:00:33.225Z,20.95
2023-03-05T10:01:42.418Z,21.45
2023-03-05T10:02:50.138Z,22.75
2023-03-05T10:04:11.722Z,22.55
2023-03-05T10:05:08.333Z,22.45
2023-03-05T10:06:29.117Z,22.15
2023-03-05T10:07:31.781Z,21.40
2023-03-05T10:08:52.593Z,21.42
2023-03-05T10:10:00.498Z,20.13
2023-03-05T10:10:59.940Z,21.05
2023-03-05T10:11:59.346Z,21.15
2023-03-05T10:13:00.047Z,21.17
2023-03-05T10:13:56.874Z,20.02
2023-03-05T10:14:54.658Z,20.80
2023-03-05T10:16:22.695Z,20.13
2023-03-05T10:17:31.487Z,19.38
2023-03-05T10:18:46.456Z,20.95
2023-03-05T10:19:42.969Z,19.95
2023-03-05T10:21:01.493Z,20.65
2023-03-05T10:22:17.941Z,19.73
2023-03-05T10:23:24.680Z,20.15
2023-03-05T10:24:38.310Z,20.17
2023-03-05T10:25:34.872Z,20.65
2023-03-05T10:26:59.993Z,19.35
2023-03-05T10:28:21.602Z,19.92
2023-03-05T10:29:37.064Z,19.40
2023-03-05T10:30:33.656Z,19.02
2023-03-05T10:31:58.108Z,20.33
2023-03-05T10:33:03.807Z,19.92
2023-03-05T10:34:00.293Z,20.20
2023-03-05T10:35:28.942Z,19.33
2023-03-05T10:36:31.319Z,17.35
2023-03-05T10:37:35.419Z,18.00
2023-03-05T10:39:01.083Z,19.40
2023-03-05T10:40:36.003Z,19.20
2023-03-05T10:42:09.519Z,18.00
2023-03-05T10:43:24.466Z,17.67
2023-03-05T10:44:23.928Z,17.45
2023-03-05T10:45:27.669Z,17.27
2023-03-05T10:46:36.391Z,17.05
2023-03-05T10:47:48.233Z,16.98
2023-03-05T10:49:21.948Z,16.83
2023-03-05T10:50:22.018Z,16.77
2023-03-05T10:51:24.218Z,17.20
2023-03-05T10:52:35.040Z,17.38
2023-03-05T10:53:43.637Z,17.73
2023-03-05T10:54:42.882Z,15.80
2023-03-05T10:55:40.174Z,17.42
2023-03-05T10:56:37.159Z,15.80
2023-03-05T10:57:33.729Z,14.73
2023-03-05T10:58:30.622Z,15.52
2023-03-05T10:59:28.104Z,15.15
2023-03-05T11:00:27.824Z,15.85
2023-03-05T11:01:28.214Z,15.68
2023-03-05T11:02:25.129Z,15.77
2023-03-05T11:03:21.836Z,15.43
2023-03-05T11:04:28.951Z,14.95
2023-03-05T11:05:48.104Z,15.38
2023-03-05T11:06:48.742Z,16.55
2023-03-05T11:07:45.386Z,14.90
2023-03-05T11:08:42.428Z,14.82
2023-03-05T11:09:39.204Z,14.73
2023-03-05T11:10:35.761Z,15.25
2023-03-05T11:11:33.408Z,15.82
2023-03-05T11:12:39.816Z,15.55
2023-03-05T11:13:38.861Z,16.42
2023-03-05T11:14:38.762Z,15.65
2023-03-05T11:15:35.449Z,15.65
2023-03-05T11:16:46.980Z,15.70
2023-03-05T11:18:04.242Z,17.15
2023-03-05T11:19:20.833Z,17.02
2023-03-05T11:20:20.223Z,16.33
2023-03-05T11:21:27.557Z,15.90
2023-03-05T11:22:25.453Z,16.98
2023-03-05T11:23:24.094Z,17.15
2023-03-05T11:24:20.747Z,17.63
2023-03-05T11:25:21.378Z,18.05
2023-03-05T11:26:24.542Z,17.52
2023-03-05T11:27:50.632Z,18.25
2023-03-05T11:28:53.939Z,17.55
2023-03-05T11:29:50.997Z,17.65
2023-03-05T11:31:03.285Z,17.88
2023-03-05T11:32:35.456Z,16.60
2023-03-05T11:33:32.153Z,16.08
2023-03-05T11:34:35.456Z,16.63
2023-03-05T11:35:35.964Z,16.15
2023-03-05T11:36:40.114Z,16.23
2023-03-05T11:37:36.694Z,16.30
2023-03-05T11:38:34.801Z,16.48
2023-03-05T11:39:35.301Z,16.30
2023-03-05T11:40:37.213Z,15.75
2023-03-05T11:41:57.972Z,15.80
2023-03-05T11:42:57.323Z,16.35
2023-03-05T11:43:55.675Z,15.23
2023-03-05T11:44:55.961Z,16.08
2023-03-05T11:45:59.054Z,16.40
2023-03-05T11:47:13.209Z,16.02
2023-03-05T11:48:18.557Z,14.23
2023-03-05T11:49:20.772Z,13.68
2023-03-05T11:50:33.104Z,14.32
2023-03-05T11:51:43.701Z,13.02
2023-03-05T11:52:47.377Z,13.82
2023-03-05T11:53:46.057Z,13.18
2023-03-05T11:54:56.164Z,12.23
2023-03-05T11:55:59.977Z,11.82
2023-03-05T11:56:56.749Z,11.95
2023-03-05T11:58:05.487Z,12.00
2023-03-05T11:59:11.657Z,13.68
2023-03-05T12:00:13.055Z,13.77
2023-03-05T12:01:19.597Z,14.52
2023-03-05T12:02:25.641Z,14.18
2023-03-05T12:03:26.006Z,13.02
2023-03-05T12:04:23.840Z,14.27
2023-03-05T12:05:21.162Z,14.60
2023-03-05T12:06:33.093Z,14.45
2023-03-05T12:07:45.202Z,16.13
2023-03-05T12:08:47.078Z,16.08
2023-03-05T12:09:52.575Z,16.92
2023-03-05T12:10:49.198Z,15.20
2023-03-05T12:11:50.548Z,16.98
2023-03-05T12:13:15.361Z,14.23
2023-03-05T12:14:36.370Z,15.00
2023-03-05T12:15:35.020Z,14.50
2023-03-05T12:16:39.497Z,13.63
2023-03-05T12:18:15.417Z,13.55
2023-03-05T12:19:30.765Z,13.95
2023-03-05T12:20:33.408Z,13.65
2023-03-05T12:21:33.108Z,14.68
2023-03-05T12:22:37.090Z,15.18
2023-03-05T12:23:52.255Z,13.70
2023-03-05T12:24:49.349Z,13.82
2023-03-05T12:25:57.035Z,14.57
2023-03-05T12:26:53.604Z,15.20
2023-03-05T12:27:50.238Z,14.15
2023-03-05T12:28:47.080Z,14.18
2023-03-05T12:29:47.100Z,15.05
2023-03-05T12:30:43.692Z,15.35
2023-03-05T12:31:41.441Z,15.52
2023-03-05T12:32:44.221Z,16.23
2023-03-05T12:33:42.900Z,16.38
2023-03-05T12:34:42.954Z,17.00
2023-03-05T12:35:41.173Z,16.98
2023-03-05T12:36:39.645Z,16.10
2023-03-05T12:37:45.623Z,15.82
2023-03-05T12:38:42.243Z,17.02
2023-03-05T12:39:45.189Z,16.15
2023-03-05T12:40:41.850Z,16.05
2023-03-05T12:41:39.622Z,16.80
2023-03-05T12:42:39.222Z,16.63
2023-03-05T12:43:36.322Z,16.77
2023-03-05T12:44:33.002Z,16.05
2023-03-05T12:45:39.856Z,16.75
2023-03-05T12:46:37.163Z,15.20